createdAt,value
2023-01-07T00:00:18.909Z,4.50
2023-01-07T00:02:47.578Z,4.60
2023-01-07T00:05:16.204Z,4.60
2023-01-07T00:07:44.649Z,4.60
2023-01-07T00:10:13.003Z,4.50
2023-01-07T00:12:42.437Z,4.50
2023-01-07T00:15:13.137Z,4.60
2023-01-07T00:17:41.630Z,4.60
2023-01-07T00:20:10.852Z,4.60
2023-01-07T00:22:39.224Z,4.50
2023-01-07T00:25:08.606Z,4.60
2023-01-07T00:27:37.015Z,4.70
2023-01-07T00:30:06.268Z,4.80
2023-01-07T00:32:54.780Z,4.90
2023-01-07T00:35:23.911Z,5.00
2023-01-07T00:37:53.005Z,5.00
2023-01-07T00:40:22.005Z,4.90
2023-01-07T00:43:01.445Z,4.90
2023-01-07T00:45:32.457Z,4.90
2023-01-07T00:48:05.257Z,4.80
2023-01-07T00:50:36.060Z,4.70
2023-01-07T00:53:04.730Z,4.70
2023-01-07T00:55:34.032Z,4.80
2023-01-07T00:58:02.579Z,4.70
2023-01-07T01:00:31.186Z,4.60
2023-01-07T01:03:01.250Z,4.40
2023-01-07T01:05:29.662Z,4.20
2023-01-07T01:07:58.858Z,4.20
2023-01-07T01:10:28.035Z,4.20
2023-01-07T01:12:56.587Z,4.10
2023-01-07T01:15:25.575Z,4.10
2023-01-07T01:17:54.093Z,4.10
2023-01-07T01:20:24.350Z,4.10
2023-01-07T01:22:52.781Z,4.00
2023-01-07T01:25:21.307Z,3.90
2023-01-07T01:27:49.739Z,3.80
2023-01-07T01:30:18.202Z,3.70
2023-01-07T01:32:46.712Z,3.70
2023-01-07T01:35:15.173Z,3.70
2023-01-07T01:37:45.452Z,3.80
2023-01-07T01:40:14.933Z,4.00
2023-01-07T01:45:54.976Z,4.30
2023-01-07T01:48:23.829Z,4.20
2023-01-07T01:50:54.364Z,4.20
2023-01-07T01:53:27.406Z,4.20
2023-01-07T01:55:59.923Z,4.20
2023-01-07T01:58:36.076Z,4.20
2023-01-07T02:01:04.677Z,4.30
2023-01-07T02:03:36.340Z,4.40
2023-01-07T02:06:05.905Z,4.40
2023-01-07T02:08:35.974Z,4.50
2023-01-07T02:11:14.712Z,4.50
2023-01-07T02:14:00.437Z,4.70
2023-01-07T02:16:36.179Z,4.80
2023-01-07T02:19:27.256Z,5.00
2023-01-07T02:22:02.775Z,5.10
2023-01-07T02:25:14.083Z,5.10
2023-01-07T02:28:07.364Z,5.30
2023-01-07T02:31:05.202Z,5.30
2023-01-07T02:33:48.802Z,5.40
2023-01-07T02:36:37.682Z,5.40
2023-01-07T02:39:20.722Z,5.40
2023-01-07T02:41:58.792Z,5.40
2023-01-07T02:44:37.098Z,5.50
2023-01-07T02:47:13.147Z,5.40
2023-01-07T02:49:42.932Z,5.30
2023-01-07T02:52:21.911Z,5.20
2023-01-07T02:54:54.892Z,5.10
2023-01-07T02:58:01.014Z,5.00
2023-01-07T03:00:46.417Z,4.90
2023-01-07T03:03:39.587Z,4.90
2023-01-07T03:06:24.135Z,4.70
2023-01-07T03:09:06.305Z,4.70
2023-01-07T03:11:41.271Z,4.70
2023-01-07T03:14:15.790Z,4.80
2023-01-07T03:16:48.185Z,4.90
2023-01-07T03:19:21.755Z,4.90
2023-01-07T03:21:53.813Z,4.80
2023-01-07T03:24:26.389Z,4.80
2023-01-07T03:26:58.624Z,4.90
2023-01-07T03:29:27.223Z,4.90
2023-01-07T03:32:03.027Z,4.90
2023-01-07T03:34:34.920Z,4.80
2023-01-07T03:37:09.536Z,4.80
2023-01-07T03:39:41.545Z,4.70
2023-01-07T03:42:33.173Z,4.60
2023-01-07T03:45:02.139Z,4.60
2023-01-07T03:47:31.280Z,4.70
2023-01-07T03:49:59.801Z,4.70
2023-01-07T03:52:29.869Z,4.70
2023-01-07T03:54:58.346Z,4.80
2023-01-07T03:57:26.853Z,4.80
2023-01-07T03:59:55.411Z,4.80
2023-01-07T04:02:24.014Z,4.90
2023-01-07T04:04:52.574Z,4.80
2023-01-07T04:07:21.173Z,4.90
2023-01-07T04:09:51.117Z,4.90
2023-01-07T04:12:19.624Z,5.00
2023-01-07T04:14:48.358Z,5.00
2023-01-07T04:17:16.860Z,5.10
2023-01-07T04:19:45.585Z,5.10
2023-01-07T04:22:14.074Z,5.20
2023-01-07T04:24:42.495Z,5.20
2023-01-07T04:27:12.756Z,5.30
2023-01-07T04:29:41.279Z,5.40
2023-01-07T04:32:09.750Z,5.40
2023-01-07T04:34:38.137Z,5.50
2023-01-07T04:37:06.592Z,5.50
2023-01-07T04:39:34.885Z,5.50
2023-01-07T04:42:03.296Z,5.50
2023-01-07T04:44:33.104Z,5.50
2023-01-07T04:47:01.599Z,5.50
2023-01-07T04:49:30.025Z,5.50
2023-01-07T04:51:58.515Z,5.50
2023-01-07T04:54:26.821Z,5.50
2023-01-07T04:56:55.359Z,5.50
2023-01-07T04:59:24.158Z,5.50
2023-01-07T05:01:54.467Z,5.40
2023-01-07T05:04:22.902Z,5.40
2023-01-07T05:06:51.469Z,5.50
2023-01-07T05:09:19.896Z,5.50
2023-01-07T05:11:48.580Z,5.50
2023-01-07T05:14:17.051Z,5.60
2023-01-07T05:16:45.572Z,5.60
2023-01-07T05:19:15.713Z,5.60
2023-01-07T05:21:44.154Z,5.60
2023-01-07T05:24:19.908Z,5.70
2023-01-07T05:26:48.399Z,5.70
2023-01-07T05:29:17.380Z,5.70
2023-01-07T05:31:53.306Z,5.70
2023-01-07T05:34:23.360Z,5.70
2023-01-07T05:36:51.746Z,5.70
2023-01-07T05:39:20.119Z,5.60
2023-01-07T05:41:48.677Z,5.50
2023-01-07T05:44:17.095Z,5.50
2023-01-07T05:46:45.586Z,5.30
2023-01-07T05:49:14.267Z,5.30
2023-01-07T05:51:44.362Z,5.30
2023-01-07T05:54:12.927Z,5.20
2023-01-07T05:56:41.604Z,5.10
2023-01-07T05:59:10.048Z,5.00
2023-01-07T06:01:38.630Z,5.00
2023-01-07T06:04:07.699Z,5.00
2023-01-07T06:06:36.121Z,4.90
2023-01-07T06:09:07.359Z,4.80
2023-01-07T06:11:35.834Z,4.70
2023-01-07T06:14:04.399Z,4.70
2023-01-07T06:16:33.170Z,4.60
2023-01-07T06:19:01.809Z,4.50
2023-01-07T06:21:30.134Z,4.50
2023-01-07T06:23:58.705Z,4.50
2023-01-07T06:26:28.567Z,4.50
2023-01-07T06:28:57.134Z,4.60
2023-01-07T06:31:25.832Z,4.60
2023-01-07T06:33:54.318Z,4.70
2023-01-07T06:36:22.762Z,4.70
2023-01-07T06:38:51.205Z,4.80
2023-01-07T06:41:20.079Z,4.70
2023-01-07T06:43:49.859Z,4.60
2023-01-07T06:46:18.583Z,4.50
2023-01-07T06:48:47.209Z,4.50
2023-01-07T06:51:15.786Z,4.50
2023-01-07T06:53:44.279Z,4.50
2023-01-07T06:56:12.633Z,4.50
2023-01-07T06:58:41.195Z,4.40
2023-01-07T07:01:11.322Z,4.40
2023-01-07T07:03:39.907Z,4.30
2023-01-07T07:06:09.253Z,4.30
2023-01-07T07:08:37.853Z,4.20
2023-01-07T07:11:06.819Z,4.30
2023-01-07T07:13:35.306Z,4.30
2023-01-07T07:16:04.014Z,4.30
2023-01-07T07:18:33.910Z,4.30
2023-01-07T07:21:02.492Z,4.30
2023-01-07T07:23:31.111Z,4.40
2023-01-07T07:25:59.541Z,4.60
2023-01-07T07:28:27.986Z,4.70
2023-01-07T07:30:56.484Z,4.70
2023-01-07T07:33:24.978Z,4.60
2023-01-07T07:35:56.076Z,4.60
2023-01-07T07:38:24.587Z,4.50
2023-01-07T07:40:57.172Z,4.50
2023-01-07T07:43:25.545Z,4.70
2023-01-07T07:45:54.010Z,4.70
2023-01-07T07:48:22.418Z,4.70
2023-01-07T07:50:52.564Z,4.60
2023-01-07T07:53:37.877Z,4.60
2023-01-07T07:56:09.198Z,4.70
2023-01-07T07:58:37.858Z,4.80
2023-01-07T08:01:06.941Z,4.80
2023-01-07T08:03:35.847Z,4.80
2023-01-07T08:06:06.206Z,4.90
2023-01-07T08:08:39.062Z,5.00
2023-01-07T08:11:07.510Z,5.00
2023-01-07T08:13:38.230Z,5.00
2023-01-07T08:16:07.482Z,5.10
2023-01-07T08:18:36.084Z,5.10
2023-01-07T08:21:04.651Z,5.10
2023-01-07T08:23:34.935Z,5.10
2023-01-07T08:26:05.126Z,5.00
2023-01-07T08:28:34.172Z,5.00
2023-01-07T08:31:04.109Z,5.10
2023-01-07T08:33:37.606Z,5.00
2023-01-07T08:36:18.175Z,5.10
2023-01-07T08:38:54.937Z,5.10
2023-01-07T08:41:25.908Z,5.20
2023-01-07T08:43:55.411Z,5.20
2023-01-07T08:46:23.910Z,5.30
2023-01-07T08:48:52.284Z,5.30
2023-01-07T08:51:20.847Z,5.30
2023-01-07T08:53:49.330Z,5.40
2023-01-07T08:56:17.637Z,5.40
2023-01-07T08:58:47.806Z,5.40
2023-01-07T09:01:16.288Z,5.40
2023-01-07T09:03:45.106Z,5.40
2023-01-07T09:06:13.732Z,5.50
2023-01-07T09:08:42.129Z,5.60
2023-01-07T09:11:13.650Z,5.60
2023-01-07T09:13:42.104Z,5.70
2023-01-07T09:16:11.969Z,5.90
2023-01-07T09:18:40.366Z,5.90
2023-01-07T09:21:08.782Z,6.00
2023-01-07T09:23:37.233Z,6.00
2023-01-07T09:26:05.856Z,6.10
2023-01-07T09:28:34.192Z,6.20
2023-01-07T09:31:03.345Z,6.30
2023-01-07T09:33:34.346Z,6.30
2023-01-07T09:36:02.815Z,6.40
2023-01-07T09:38:31.651Z,6.40
2023-01-07T09:41:00.507Z,6.60
2023-01-07T09:44:00.713Z,6.70
2023-01-07T09:46:24.588Z,6.80
2023-01-07T09:48:59.039Z,7.00
2023-01-07T09:51:32.946Z,7.10
2023-01-07T09:54:03.738Z,7.30
2023-01-07T09:56:34.125Z,7.40
2023-01-07T09:59:03.792Z,7.50
2023-01-07T10:01:38.109Z,7.60
2023-01-07T10:04:26.304Z,7.70
2023-01-07T10:07:03.408Z,7.80
2023-01-07T10:09:41.912Z,7.90
2023-01-07T10:12:18.006Z,7.90
2023-01-07T10:15:14.888Z,7.90
2023-01-07T10:17:58.337Z,7.90
2023-01-07T10:20:36.206Z,8.00
2023-01-07T10:23:09.148Z,8.20
2023-01-07T10:25:42.114Z,8.30
2023-01-07T10:28:19.219Z,8.20
2023-01-07T10:30:51.815Z,8.30
2023-01-07T10:33:25.482Z,8.30
2023-01-07T10:36:02.844Z,8.30
2023-01-07T10:38:35.600Z,8.30
2023-01-07T10:41:10.432Z,8.20
2023-01-07T10:43:54.433Z,8.20
2023-01-07T10:46:39.690Z,8.10
2023-01-07T10:49:34.578Z,8.00
2023-01-07T10:52:14.952Z,7.90
2023-01-07T10:55:06.444Z,7.80
2023-01-07T10:57:37.491Z,7.90
2023-01-07T11:00:09.121Z,7.90
2023-01-07T11:02:39.908Z,8.00
2023-01-07T11:05:14.044Z,8.00
2023-01-07T11:07:47.902Z,8.10
2023-01-07T11:10:19.101Z,8.10
2023-01-07T11:12:51.648Z,8.20
2023-01-07T11:15:26.199Z,8.30
2023-01-07T11:17:57.774Z,8.20
2023-01-07T11:20:51.344Z,8.20
2023-01-07T11:23:30.214Z,8.20
2023-01-07T11:26:09.624Z,8.30
2023-01-07T11:28:38.873Z,8.30
2023-01-07T11:31:07.603Z,8.30
2023-01-07T11:34:02.958Z,8.20
2023-01-07T11:36:44.058Z,8.00
2023-01-07T11:39:23.184Z,8.00
2023-01-07T11:41:57.235Z,8.00
2023-01-07T11:44:25.991Z,8.00
2023-01-07T11:46:55.915Z,8.00
2023-01-07T11:49:28.155Z,8.10
2023-01-07T11:51:57.143Z,8.10
2023-01-07T11:54:29.041Z,8.10
2023-01-07T11:57:13.281Z,8.10
2023-01-07T11:59:44.243Z,8.10
2023-01-07T12:02:30.914Z,8.10
2023-01-07T12:05:37.190Z,8.10
2023-01-07T12:08:20.241Z,8.10
2023-01-07T12:10:56.752Z,8.10
2023-01-07T12:13:28.428Z,8.20
2023-01-07T12:16:07.106Z,8.20
2023-01-07T12:18:53.581Z,8.10
2023-01-07T12:21:48.569Z,8.20
2023-01-07T12:24:40.628Z,8.20
2023-01-07T12:27:20.578Z,8.20
2023-01-07T12:30:00.021Z,8.30
2023-01-07T12:32:42.288Z,8.20
2023-01-07T12:35:18.261Z,8.20
2023-01-07T12:37:53.136Z,8.20
2023-01-07T12:40:37.817Z,8.20
2023-01-07T12:43:15.983Z,8.30
2023-01-07T12:45:50.631Z,8.30
2023-01-07T12:48:35.204Z,8.30
2023-01-07T12:51:10.970Z,8.40
2023-01-07T12:53:45.161Z,8.40
2023-01-07T12:56:23.941Z,8.30
2023-01-07T12:58:59.595Z,8.30
2023-01-07T13:01:34.227Z,8.30
2023-01-07T13:04:10.564Z,8.30
2023-01-07T13:06:45.706Z,8.30
2023-01-07T13:09:25.971Z,8.20
2023-01-07T13:12:41.577Z,8.20
2023-01-07T13:15:13.660Z,8.20
2023-01-07T13:17:43.381Z,8.20
2023-01-07T13:20:14.412Z,8.20
2023-01-07T13:22:52.836Z,8.10
2023-01-07T13:25:33.034Z,8.10
2023-01-07T13:28:22.896Z,8.10
2023-01-07T13:31:09.971Z,8.00
2023-01-07T13:33:45.343Z,7.90
2023-01-07T13:36:25.363Z,7.80
2023-01-07T13:39:18.736Z,7.80
2023-01-07T13:42:13.724Z,7.80
2023-01-07T13:45:03.024Z,7.80
2023-01-07T13:47:44.430Z,7.80
2023-01-07T13:50:23.717Z,7.80
2023-01-07T13:53:04.086Z,7.70
2023-01-07T13:55:38.968Z,7.70
2023-01-07T13:58:36.211Z,7.60
2023-01-07T14:01:06.923Z,7.60
2023-01-07T14:03:49.798Z,7.50
2023-01-07T14:06:47.385Z,7.40
2023-01-07T14:09:39.364Z,7.50
2023-01-07T14:12:29.700Z,7.30
2023-01-07T14:15:20.491Z,7.20
2023-01-07T14:18:02.759Z,7.20
2023-01-07T14:20:42.589Z,7.10
2023-01-07T14:23:26.851Z,6.90
2023-01-07T14:26:08.475Z,6.90
2023-01-07T14:29:00.852Z,6.90
2023-01-07T14:31:32.434Z,6.90
2023-01-07T14:34:05.434Z,6.90
2023-01-07T14:37:11.685Z,6.80
2023-01-07T14:39:41.534Z,6.70
2023-01-07T14:46:28.428Z,6.60
2023-01-07T14:53:03.104Z,6.40
2023-01-07T14:56:10.433Z,6.20
2023-01-07T15:02:45.279Z,6.00
2023-01-07T15:05:30.845Z,5.90
2023-01-07T15:08:19.421Z,5.90
2023-01-07T15:11:08.667Z,5.90
2023-01-07T15:14:03.418Z,5.80
2023-01-07T15:16:35.953Z,5.60
2023-01-07T15:19:04.614Z,5.50
2023-01-07T15:21:42.622Z,5.30
2023-01-07T15:24:20.769Z,5.20
2023-01-07T15:26:57.820Z,5.20
2023-01-07T15:29:31.736Z,5.20
2023-01-07T15:32:09.959Z,5.10
2023-01-07T15:34:40.939Z,5.00
2023-01-07T15:37:13.684Z,4.80
2023-01-07T15:39:48.751Z,4.60
2023-01-07T15:42:20.662Z,4.40
2023-01-07T15:44:52.332Z,4.30
2023-01-07T15:47:35.698Z,4.20
2023-01-07T15:50:26.327Z,4.20
2023-01-07T15:52:56.086Z,4.10
2023-01-07T15:55:32.088Z,4.00
2023-01-07T15:58:04.460Z,3.90
2023-01-07T16:00:34.941Z,3.90
2023-01-07T16:03:04.604Z,3.90
2023-01-07T16:05:33.196Z,3.70
2023-01-07T16:08:03.098Z,3.70
2023-01-07T16:10:37.065Z,3.70
2023-01-07T16:13:07.443Z,3.80
2023-01-07T16:15:37.812Z,3.70
2023-01-07T16:18:20.341Z,3.70
2023-01-07T16:20:54.981Z,3.60
2023-01-07T16:23:26.468Z,3.70
2023-01-07T16:25:59.617Z,3.70
2023-01-07T16:28:31.429Z,3.70
2023-01-07T16:31:00.456Z,3.70
2023-01-07T16:33:39.412Z,3.70
2023-01-07T16:36:12.746Z,3.70
2023-01-07T16:38:41.809Z,3.70
2023-01-07T16:41:21.490Z,3.70
2023-01-07T16:43:54.462Z,3.80
2023-01-07T16:46:30.944Z,3.90
2023-01-07T16:49:23.257Z,3.90
2023-01-07T16:51:54.316Z,3.90
2023-01-07T16:54:34.657Z,3.80
2023-01-07T16:57:06.402Z,3.70
2023-01-07T16:59:41.172Z,3.80
2023-01-07T17:02:21.558Z,3.80
2023-01-07T17:04:50.254Z,3.80
2023-01-07T17:07:23.013Z,3.80
2023-01-07T17:09:59.127Z,3.80
2023-01-07T17:12:42.438Z,3.90
2023-01-07T17:15:35.733Z,3.90
2023-01-07T17:18:30.906Z,3.80
2023-01-07T17:21:03.822Z,3.70
2023-01-07T17:23:46.003Z,3.90
2023-01-07T17:26:25.570Z,3.90
2023-01-07T17:29:05.522Z,3.90
2023-01-07T17:31:33.870Z,3.90
2023-01-07T17:34:02.859Z,4.00
2023-01-07T17:36:32.331Z,4.00
2023-01-07T17:39:03.622Z,4.10
2023-01-07T17:41:56.917Z,4.10
2023-01-07T17:44:27.807Z,4.20
2023-01-07T17:46:56.672Z,4.40
2023-01-07T17:49:31.982Z,4.60
2023-01-07T17:52:00.658Z,4.60
2023-01-07T17:54:30.612Z,4.70
2023-01-07T17:56:59.308Z,4.80
2023-01-07T17:59:30.468Z,4.80
2023-01-07T18:02:02.123Z,4.70
2023-01-07T18:04:30.754Z,4.90
2023-01-07T18:06:59.224Z,5.00
2023-01-07T18:09:27.752Z,5.00
2023-01-07T18:12:25.352Z,5.10
2023-01-07T18:14:55.390Z,5.20
2023-01-07T18:17:23.901Z,5.20
2023-01-07T18:19:52.345Z,5.10
2023-01-07T18:22:21.736Z,5.10
2023-01-07T18:24:50.264Z,5.20
2023-01-07T18:27:19.663Z,5.30
2023-01-07T18:29:48.105Z,5.30
2023-01-07T18:32:18.148Z,5.40
2023-01-07T18:34:46.959Z,5.30
2023-01-07T18:37:16.658Z,5.40
2023-01-07T18:39:45.069Z,5.40
2023-01-07T18:42:20.034Z,5.50
2023-01-07T18:44:48.644Z,5.50
2023-01-07T18:47:19.007Z,5.50
2023-01-07T18:49:47.422Z,5.40
2023-01-07T18:52:16.365Z,5.30
2023-01-07T18:54:45.893Z,5.20
2023-01-07T18:57:18.607Z,5.20
2023-01-07T18:59:47.128Z,5.20
2023-01-07T19:02:22.357Z,5.30
2023-01-07T19:04:58.106Z,5.20
2023-01-07T19:07:27.069Z,5.30
2023-01-07T19:09:56.204Z,5.30
2023-01-07T19:12:25.092Z,5.30
2023-01-07T19:14:53.505Z,5.30
2023-01-07T19:17:29.857Z,5.30
2023-01-07T19:20:01.612Z,5.20
2023-01-07T19:22:30.185Z,5.20
2023-01-07T19:24:59.019Z,5.10
2023-01-07T19:27:28.165Z,5.10
2023-01-07T19:29:59.959Z,5.00
2023-01-07T19:32:30.945Z,5.20
2023-01-07T19:34:59.785Z,5.20
2023-01-07T19:37:28.286Z,5.20
2023-01-07T19:39:56.837Z,5.10
2023-01-07T19:42:25.259Z,5.00
2023-01-07T19:44:54.555Z,5.00
2023-01-07T19:47:23.634Z,5.00
2023-01-07T19:49:59.666Z,5.00
2023-01-07T19:52:28.676Z,5.00
2023-01-07T19:54:57.576Z,4.90
2023-01-07T19:57:26.715Z,4.90
2023-01-07T19:59:55.377Z,5.00
2023-01-07T20:02:24.461Z,5.00
2023-01-07T20:05:14.719Z,5.10
2023-01-07T20:07:49.070Z,5.10
2023-01-07T20:10:19.243Z,5.10
2023-01-07T20:12:54.641Z,5.10
2023-01-07T20:15:29.083Z,5.10
2023-01-07T20:17:57.968Z,5.20
2023-01-07T20:20:29.589Z,5.30
2023-01-07T20:22:58.804Z,5.20
2023-01-07T20:25:28.101Z,5.20
2023-01-07T20:27:57.088Z,5.10
2023-01-07T20:30:27.968Z,5.20
2023-01-07T20:32:56.412Z,5.10
2023-01-07T20:35:25.325Z,5.10
2023-01-07T20:37:55.548Z,5.00
2023-01-07T20:40:26.409Z,5.00
2023-01-07T21:06:05.439Z,4.40
2023-01-07T21:34:48.123Z,3.20
2023-01-07T21:40:15.047Z,3.50
2023-01-07T21:42:48.904Z,3.70
2023-01-07T21:45:19.071Z,3.90
2023-01-07T21:47:47.475Z,4.00
2023-01-07T21:50:16.898Z,4.10
2023-01-07T21:52:45.327Z,4.20
2023-01-07T21:55:15.466Z,4.20
2023-01-07T21:57:44.766Z,4.30
2023-01-07T22:03:12.611Z,4.30
2023-01-07T22:08:33.900Z,4.20
2023-01-07T22:14:01.520Z,4.10
2023-01-07T22:16:32.058Z,4.20
2023-01-07T22:19:02.993Z,4.10
2023-01-07T22:21:33.767Z,4.10
2023-01-07T22:24:02.159Z,4.10
2023-01-07T22:26:37.462Z,4.00
2023-01-07T22:29:09.006Z,3.80
2023-01-07T22:31:38.456Z,3.70
2023-01-07T22:34:10.056Z,3.70
2023-01-07T22:36:55.259Z,3.70
2023-01-07T22:39:27.982Z,3.70
2023-01-07T22:42:00.604Z,3.60
2023-01-07T22:44:35.100Z,3.70
2023-01-07T22:47:07.145Z,3.70
2023-01-07T22:49:37.380Z,3.60
2023-01-07T22:52:06.901Z,3.60
2023-01-07T22:54:36.187Z,3.50
2023-01-07T22:57:06.159Z,3.60
2023-01-07T22:59:35.964Z,3.40
2023-01-07T23:02:04.373Z,3.30
2023-01-07T23:04:33.015Z,3.20
2023-01-07T23:07:03.055Z,3.10
2023-01-07T23:09:31.562Z,3.10
2023-01-07T23:12:00.957Z,2.90
2023-01-07T23:14:31.037Z,2.80
2023-01-07T23:17:00.330Z,2.80
2023-01-07T23:19:30.801Z,2.70
2023-01-07T23:22:00.457Z,2.70
2023-01-07T23:24:30.213Z,2.70
2023-01-07T23:26:58.868Z,2.70
2023-01-07T23:29:27.455Z,2.70
2023-01-07T23:31:56.079Z,2.60
2023-01-07T23:34:24.703Z,2.60
2023-01-07T23:36:53.106Z,2.80
2023-01-07T23:39:21.779Z,3.00
2023-01-07T23:41:51.673Z,3.00
2023-01-07T23:44:20.119Z,3.00
2023-01-07T23:46:48.504Z,3.10
2023-01-07T23:49:16.988Z,3.10
2023-01-07T23:51:45.517Z,3.10
2023-01-07T23:54:14.094Z,3.20
2023-01-07T23:56:42.599Z,3.20
2023-01-07T23:59:13.110Z,3.20
